This is the latest recevied weather packets stored in our database for station/object DL5DI-H. If no packets are shown the sender has not sent any weather packets the latest 10 day(s).
| Time | Temp. | Humidity | Pressure | Rain* | Wind** | Luminosity | Snow |
|---|---|---|---|---|---|---|---|
| 1777576201 | 16.67° C | 30% | 1026.6 hPa | 0 mm | - | - | - |
| 1777572605 | 19.44° C | 26% | 1026.2 hPa | 0 mm | - | - | - |
| 1777570205 | 20.56° C | 24% | 1026.2 hPa | 0 mm | - | - | - |
| 1777568405 | 21.67° C | 23% | 1026.3 hPa | 0 mm | - | - | - |
| 1777567805 | 21.67° C | 23% | 1026.3 hPa | 0 mm | - | - | - |
| 1777562405 | 21.67° C | 23% | 1026.7 hPa | 0 mm | - | - | - |
| 1777559401 | 21.67° C | 24% | 1026.7 hPa | 0 mm | - | - | - |
| 1777558805 | 21.11° C | 23% | 1027 hPa | 0 mm | - | - | - |
| 1777555800 | 19.44° C | 27% | 1027.6 hPa | 0 mm | - | - | - |
| 1777555200 | 19.44° C | 27% | 1027.6 hPa | 0 mm | - | - | - |
| 1777554605 | 19.44° C | 27% | 1027.6 hPa | 0 mm | - | - | - |
| 1777553405 | 18.89° C | 26% | 1027.7 hPa | 0 mm | - | - | - |
| 1777552201 | 18.33° C | 26% | 1027.8 hPa | 0 mm | - | - | - |
| 1777551605 | 18.33° C | 27% | 1027.9 hPa | 0 mm | - | - | - |
| 1777551001 | 17.78° C | 28% | 1028 hPa | 0 mm | - | - | - |
| 1777550405 | 17.22° C | 28% | 1028.1 hPa | 0 mm | - | - | - |
| 1777546801 | 15.56° C | 29% | 1028.7 hPa | 0 mm | - | - | - |
| 1777545004 | 14.44° C | 32% | 1029 hPa | 0 mm | - | - | - |
| 1777544405 | 14.44° C | 34% | 1029 hPa | 0 mm | - | - | - |
| 1777543805 | 13.89° C | 34% | 1029 hPa | 0 mm | - | - | - |
| 1777543205 | 13.33° C | 36% | 1029 hPa | 0 mm | - | - | - |
| 1777542605 | 13.33° C | 36% | 1029.1 hPa | 0 mm | - | - | - |
| 1777542005 | 12.78° C | 36% | 1029.2 hPa | 0 mm | - | - | - |
| 1777537204 | 10.56° C | 41% | 1029.5 hPa | 0 mm | - | - | - |
| 1777536605 | 10.56° C | 40% | 1029.6 hPa | 0 mm | - | - | - |
* Rain latest hour (hover to see other rain measurements)
** Current wind speed in m/s (hover to see current wind gust speed)